sensor_id;sensor_type;location;lat;lon;timestamp;P1;durP1;ratioP1;P2;durP2;ratioP2
6105;SDS011;3083;51.508;7.966;2022-07-29T00:00:06;6.73;;;3.30;;
6105;SDS011;3083;51.508;7.966;2022-07-29T00:02:35;6.07;;;3.07;;
6105;SDS011;3083;51.508;7.966;2022-07-29T00:05:04;6.93;;;3.27;;
6105;SDS011;3083;51.508;7.966;2022-07-29T00:07:31;7.90;;;3.30;;
6105;SDS011;3083;51.508;7.966;2022-07-29T00:09:58;7.70;;;3.07;;
6105;SDS011;3083;51.508;7.966;2022-07-29T00:12:25;6.80;;;2.80;;
6105;SDS011;3083;51.508;7.966;2022-07-29T00:14:52;6.10;;;3.20;;
6105;SDS011;3083;51.508;7.966;2022-07-29T00:17:20;7.67;;;3.30;;
6105;SDS011;3083;51.508;7.966;2022-07-29T00:19:47;6.30;;;2.87;;
6105;SDS011;3083;51.508;7.966;2022-07-29T00:22:15;6.10;;;2.80;;
6105;SDS011;3083;51.508;7.966;2022-07-29T00:24:42;8.63;;;3.50;;
6105;SDS011;3083;51.508;7.966;2022-07-29T00:27:09;7.47;;;3.27;;
6105;SDS011;3083;51.508;7.966;2022-07-29T00:29:36;9.40;;;2.90;;
6105;SDS011;3083;51.508;7.966;2022-07-29T00:32:03;5.80;;;2.63;;
6105;SDS011;3083;51.508;7.966;2022-07-29T00:34:30;8.43;;;3.23;;
6105;SDS011;3083;51.508;7.966;2022-07-29T00:37:16;9.70;;;2.80;;
6105;SDS011;3083;51.508;7.966;2022-07-29T00:39:43;11.00;;;3.30;;
6105;SDS011;3083;51.508;7.966;2022-07-29T00:42:10;7.77;;;2.93;;
6105;SDS011;3083;51.508;7.966;2022-07-29T00:44:37;7.03;;;3.10;;
6105;SDS011;3083;51.508;7.966;2022-07-29T00:47:04;6.97;;;2.77;;
6105;SDS011;3083;51.508;7.966;2022-07-29T00:49:32;6.97;;;2.70;;
6105;SDS011;3083;51.508;7.966;2022-07-29T00:52:00;5.23;;;2.87;;
6105;SDS011;3083;51.508;7.966;2022-07-29T00:54:29;5.63;;;2.87;;
6105;SDS011;3083;51.508;7.966;2022-07-29T00:56:56;4.83;;;2.40;;
6105;SDS011;3083;51.508;7.966;2022-07-29T00:59:24;5.57;;;2.70;;
6105;SDS011;3083;51.508;7.966;2022-07-29T01:01:52;10.20;;;2.63;;
6105;SDS011;3083;51.508;7.966;2022-07-29T01:04:20;7.00;;;3.23;;
6105;SDS011;3083;51.508;7.966;2022-07-29T01:06:47;8.67;;;2.90;;
6105;SDS011;3083;51.508;7.966;2022-07-29T01:09:14;6.30;;;2.87;;
6105;SDS011;3083;51.508;7.966;2022-07-29T01:11:45;5.57;;;2.80;;
6105;SDS011;3083;51.508;7.966;2022-07-29T01:14:13;5.30;;;2.80;;
6105;SDS011;3083;51.508;7.966;2022-07-29T01:16:42;8.63;;;3.10;;
6105;SDS011;3083;51.508;7.966;2022-07-29T01:19:18;8.53;;;3.00;;
6105;SDS011;3083;51.508;7.966;2022-07-29T01:22:01;7.13;;;3.10;;
6105;SDS011;3083;51.508;7.966;2022-07-29T01:24:54;14.23;;;3.30;;
6105;SDS011;3083;51.508;7.966;2022-07-29T01:30:45;10.00;;;3.23;;
6105;SDS011;3083;51.508;7.966;2022-07-29T01:33:17;6.40;;;3.10;;
6105;SDS011;3083;51.508;7.966;2022-07-29T01:35:59;8.60;;;3.00;;
6105;SDS011;3083;51.508;7.966;2022-07-29T01:38:31;6.60;;;2.70;;
6105;SDS011;3083;51.508;7.966;2022-07-29T01:41:01;6.80;;;3.13;;
6105;SDS011;3083;51.508;7.966;2022-07-29T01:46:19;5.80;;;3.10;;
6105;SDS011;3083;51.508;7.966;2022-07-29T01:48:52;6.47;;;3.00;;
6105;SDS011;3083;51.508;7.966;2022-07-29T01:51:24;8.87;;;3.27;;
6105;SDS011;3083;51.508;7.966;2022-07-29T01:53:59;8.60;;;3.63;;
6105;SDS011;3083;51.508;7.966;2022-07-29T01:56:33;11.23;;;3.27;;
6105;SDS011;3083;51.508;7.966;2022-07-29T01:59:02;7.70;;;3.43;;
6105;SDS011;3083;51.508;7.966;2022-07-29T02:01:34;6.60;;;3.20;;
6105;SDS011;3083;51.508;7.966;2022-07-29T02:04:03;6.10;;;3.03;;
6105;SDS011;3083;51.508;7.966;2022-07-29T02:06:32;8.70;;;3.30;;
6105;SDS011;3083;51.508;7.966;2022-07-29T02:09:01;11.20;;;3.90;;
6105;SDS011;3083;51.508;7.966;2022-07-29T02:11:29;9.73;;;3.67;;
6105;SDS011;3083;51.508;7.966;2022-07-29T02:13:59;7.93;;;3.33;;
6105;SDS011;3083;51.508;7.966;2022-07-29T02:16:28;10.80;;;3.37;;
6105;SDS011;3083;51.508;7.966;2022-07-29T02:18:58;8.53;;;3.67;;
6105;SDS011;3083;51.508;7.966;2022-07-29T02:21:27;8.17;;;3.40;;
6105;SDS011;3083;51.508;7.966;2022-07-29T02:23:56;8.23;;;2.87;;
6105;SDS011;3083;51.508;7.966;2022-07-29T02:26:27;5.40;;;3.20;;
6105;SDS011;3083;51.508;7.966;2022-07-29T02:28:56;9.17;;;3.33;;
6105;SDS011;3083;51.508;7.966;2022-07-29T02:31:26;7.50;;;3.23;;
6105;SDS011;3083;51.508;7.966;2022-07-29T02:33:59;7.13;;;3.33;;
6105;SDS011;3083;51.508;7.966;2022-07-29T02:36:29;6.10;;;3.10;;
6105;SDS011;3083;51.508;7.966;2022-07-29T02:38:57;6.93;;;2.90;;
6105;SDS011;3083;51.508;7.966;2022-07-29T02:41:27;9.00;;;3.73;;
6105;SDS011;3083;51.508;7.966;2022-07-29T02:43:58;8.50;;;3.70;;
6105;SDS011;3083;51.508;7.966;2022-07-29T02:46:31;10.40;;;3.87;;
6105;SDS011;3083;51.508;7.966;2022-07-29T02:49:04;11.67;;;4.30;;
6105;SDS011;3083;51.508;7.966;2022-07-29T02:51:40;9.70;;;3.40;;
6105;SDS011;3083;51.508;7.966;2022-07-29T02:54:11;21.33;;;4.20;;
6105;SDS011;3083;51.508;7.966;2022-07-29T02:56:45;8.50;;;3.80;;
6105;SDS011;3083;51.508;7.966;2022-07-29T02:59:14;7.40;;;3.50;;
6105;SDS011;3083;51.508;7.966;2022-07-29T03:01:47;13.73;;;4.17;;
6105;SDS011;3083;51.508;7.966;2022-07-29T03:04:16;7.30;;;3.87;;
6105;SDS011;3083;51.508;7.966;2022-07-29T03:06:45;6.30;;;3.87;;
6105;SDS011;3083;51.508;7.966;2022-07-29T03:09:13;8.60;;;4.00;;
6105;SDS011;3083;51.508;7.966;2022-07-29T03:11:41;6.70;;;3.77;;
6105;SDS011;3083;51.508;7.966;2022-07-29T03:14:09;7.63;;;4.00;;
6105;SDS011;3083;51.508;7.966;2022-07-29T03:16:37;6.90;;;4.00;;
6105;SDS011;3083;51.508;7.966;2022-07-29T03:19:05;5.80;;;3.80;;
6105;SDS011;3083;51.508;7.966;2022-07-29T03:21:33;6.93;;;4.13;;
6105;SDS011;3083;51.508;7.966;2022-07-29T03:24:00;6.47;;;3.97;;
6105;SDS011;3083;51.508;7.966;2022-07-29T03:26:27;9.50;;;4.20;;
6105;SDS011;3083;51.508;7.966;2022-07-29T03:28:54;10.07;;;5.07;;
6105;SDS011;3083;51.508;7.966;2022-07-29T03:31:21;9.50;;;4.63;;
6105;SDS011;3083;51.508;7.966;2022-07-29T03:33:48;14.47;;;5.00;;
6105;SDS011;3083;51.508;7.966;2022-07-29T03:36:15;10.23;;;4.80;;
6105;SDS011;3083;51.508;7.966;2022-07-29T03:38:44;15.10;;;5.03;;
6105;SDS011;3083;51.508;7.966;2022-07-29T03:41:13;10.50;;;4.70;;
6105;SDS011;3083;51.508;7.966;2022-07-29T03:43:42;11.30;;;4.07;;
6105;SDS011;3083;51.508;7.966;2022-07-29T03:46:10;11.23;;;4.70;;
6105;SDS011;3083;51.508;7.966;2022-07-29T03:48:41;10.03;;;4.40;;
6105;SDS011;3083;51.508;7.966;2022-07-29T03:51:12;9.00;;;4.37;;
6105;SDS011;3083;51.508;7.966;2022-07-29T03:53:39;14.20;;;4.73;;
6105;SDS011;3083;51.508;7.966;2022-07-29T03:56:08;11.57;;;4.80;;
6105;SDS011;3083;51.508;7.966;2022-07-29T03:58:38;11.47;;;4.87;;
6105;SDS011;3083;51.508;7.966;2022-07-29T04:01:05;10.77;;;4.90;;
6105;SDS011;3083;51.508;7.966;2022-07-29T04:03:33;9.50;;;5.30;;
6105;SDS011;3083;51.508;7.966;2022-07-29T04:06:01;8.80;;;5.30;;
6105;SDS011;3083;51.508;7.966;2022-07-29T04:08:30;11.03;;;5.50;;
6105;SDS011;3083;51.508;7.966;2022-07-29T04:10:58;7.67;;;5.50;;
6105;SDS011;3083;51.508;7.966;2022-07-29T04:13:26;10.37;;;5.30;;
6105;SDS011;3083;51.508;7.966;2022-07-29T04:15:53;9.80;;;4.90;;
6105;SDS011;3083;51.508;7.966;2022-07-29T04:18:20;9.13;;;5.70;;
6105;SDS011;3083;51.508;7.966;2022-07-29T04:20:48;9.90;;;4.97;;
6105;SDS011;3083;51.508;7.966;2022-07-29T04:23:15;7.90;;;4.93;;
6105;SDS011;3083;51.508;7.966;2022-07-29T04:25:42;7.97;;;5.00;;
6105;SDS011;3083;51.508;7.966;2022-07-29T04:28:09;11.00;;;4.60;;
6105;SDS011;3083;51.508;7.966;2022-07-29T04:30:38;8.03;;;4.67;;
6105;SDS011;3083;51.508;7.966;2022-07-29T04:33:05;9.47;;;5.20;;
6105;SDS011;3083;51.508;7.966;2022-07-29T04:35:34;8.20;;;4.77;;
6105;SDS011;3083;51.508;7.966;2022-07-29T04:38:02;8.10;;;4.37;;
6105;SDS011;3083;51.508;7.966;2022-07-29T04:40:29;9.83;;;5.23;;
6105;SDS011;3083;51.508;7.966;2022-07-29T04:42:58;8.43;;;4.77;;
6105;SDS011;3083;51.508;7.966;2022-07-29T04:45:25;10.80;;;5.20;;
6105;SDS011;3083;51.508;7.966;2022-07-29T04:47:54;8.30;;;4.90;;
6105;SDS011;3083;51.508;7.966;2022-07-29T04:50:21;8.77;;;5.10;;
6105;SDS011;3083;51.508;7.966;2022-07-29T04:52:49;11.53;;;5.17;;
6105;SDS011;3083;51.508;7.966;2022-07-29T04:55:16;8.20;;;5.10;;
6105;SDS011;3083;51.508;7.966;2022-07-29T04:57:43;9.33;;;5.00;;
6105;SDS011;3083;51.508;7.966;2022-07-29T05:00:10;8.63;;;5.70;;
6105;SDS011;3083;51.508;7.966;2022-07-29T05:02:37;7.47;;;4.60;;
6105;SDS011;3083;51.508;7.966;2022-07-29T05:05:06;7.70;;;4.97;;
6105;SDS011;3083;51.508;7.966;2022-07-29T05:07:34;12.00;;;5.27;;
6105;SDS011;3083;51.508;7.966;2022-07-29T05:10:01;15.43;;;5.80;;
6105;SDS011;3083;51.508;7.966;2022-07-29T05:12:29;8.30;;;5.10;;
6105;SDS011;3083;51.508;7.966;2022-07-29T05:14:55;7.43;;;5.10;;
6105;SDS011;3083;51.508;7.966;2022-07-29T05:17:22;10.07;;;4.83;;
6105;SDS011;3083;51.508;7.966;2022-07-29T05:19:49;11.07;;;5.07;;
6105;SDS011;3083;51.508;7.966;2022-07-29T05:22:18;9.13;;;5.20;;
6105;SDS011;3083;51.508;7.966;2022-07-29T05:24:45;13.87;;;4.47;;
6105;SDS011;3083;51.508;7.966;2022-07-29T05:27:13;8.30;;;4.40;;
6105;SDS011;3083;51.508;7.966;2022-07-29T05:29:40;9.63;;;3.97;;
6105;SDS011;3083;51.508;7.966;2022-07-29T05:32:07;9.70;;;4.40;;
6105;SDS011;3083;51.508;7.966;2022-07-29T05:34:34;10.10;;;4.50;;
6105;SDS011;3083;51.508;7.966;2022-07-29T05:37:01;8.63;;;4.30;;
6105;SDS011;3083;51.508;7.966;2022-07-29T05:39:29;8.67;;;4.00;;
6105;SDS011;3083;51.508;7.966;2022-07-29T05:41:56;7.70;;;4.47;;
6105;SDS011;3083;51.508;7.966;2022-07-29T05:44:23;8.50;;;4.23;;
6105;SDS011;3083;51.508;7.966;2022-07-29T05:46:50;6.97;;;4.47;;
6105;SDS011;3083;51.508;7.966;2022-07-29T05:49:21;18.60;;;5.07;;
6105;SDS011;3083;51.508;7.966;2022-07-29T05:51:48;7.77;;;4.53;;
6105;SDS011;3083;51.508;7.966;2022-07-29T05:54:15;9.30;;;4.67;;
6105;SDS011;3083;51.508;7.966;2022-07-29T05:56:44;7.90;;;4.47;;
6105;SDS011;3083;51.508;7.966;2022-07-29T05:59:12;8.43;;;4.30;;
6105;SDS011;3083;51.508;7.966;2022-07-29T06:01:40;9.37;;;4.00;;
6105;SDS011;3083;51.508;7.966;2022-07-29T06:04:12;7.60;;;4.17;;
6105;SDS011;3083;51.508;7.966;2022-07-29T06:06:39;7.80;;;3.70;;
6105;SDS011;3083;51.508;7.966;2022-07-29T06:09:06;5.80;;;3.57;;
6105;SDS011;3083;51.508;7.966;2022-07-29T06:11:34;10.83;;;4.10;;
6105;SDS011;3083;51.508;7.966;2022-07-29T06:14:02;6.27;;;3.50;;
6105;SDS011;3083;51.508;7.966;2022-07-29T06:16:29;6.87;;;3.60;;
6105;SDS011;3083;51.508;7.966;2022-07-29T06:18:56;11.03;;;4.23;;
6105;SDS011;3083;51.508;7.966;2022-07-29T06:21:23;6.63;;;3.80;;
6105;SDS011;3083;51.508;7.966;2022-07-29T06:23:49;11.53;;;4.50;;
6105;SDS011;3083;51.508;7.966;2022-07-29T06:26:16;13.47;;;4.43;;
6105;SDS011;3083;51.508;7.966;2022-07-29T06:28:43;14.00;;;4.40;;
6105;SDS011;3083;51.508;7.966;2022-07-29T06:31:12;8.53;;;4.20;;
6105;SDS011;3083;51.508;7.966;2022-07-29T06:33:39;10.33;;;3.87;;
6105;SDS011;3083;51.508;7.966;2022-07-29T06:36:06;6.30;;;3.87;;
6105;SDS011;3083;51.508;7.966;2022-07-29T06:38:34;11.23;;;4.43;;
6105;SDS011;3083;51.508;7.966;2022-07-29T06:41:01;7.93;;;3.30;;
6105;SDS011;3083;51.508;7.966;2022-07-29T06:43:30;9.03;;;3.83;;
6105;SDS011;3083;51.508;7.966;2022-07-29T06:46:02;8.03;;;3.93;;
6105;SDS011;3083;51.508;7.966;2022-07-29T06:48:32;10.00;;;3.90;;
6105;SDS011;3083;51.508;7.966;2022-07-29T06:51:00;8.43;;;3.90;;
6105;SDS011;3083;51.508;7.966;2022-07-29T06:53:29;6.73;;;3.73;;
6105;SDS011;3083;51.508;7.966;2022-07-29T06:55:56;7.97;;;4.10;;
6105;SDS011;3083;51.508;7.966;2022-07-29T06:58:24;6.63;;;3.80;;
6105;SDS011;3083;51.508;7.966;2022-07-29T07:00:51;13.03;;;4.37;;
6105;SDS011;3083;51.508;7.966;2022-07-29T07:03:18;6.10;;;3.60;;
6105;SDS011;3083;51.508;7.966;2022-07-29T07:05:47;6.93;;;4.03;;
6105;SDS011;3083;51.508;7.966;2022-07-29T07:08:14;9.87;;;4.10;;
6105;SDS011;3083;51.508;7.966;2022-07-29T07:10:42;6.73;;;3.50;;
6105;SDS011;3083;51.508;7.966;2022-07-29T07:13:09;6.37;;;3.27;;
6105;SDS011;3083;51.508;7.966;2022-07-29T07:15:36;8.40;;;3.40;;
6105;SDS011;3083;51.508;7.966;2022-07-29T07:18:03;7.20;;;3.83;;
6105;SDS011;3083;51.508;7.966;2022-07-29T07:20:31;8.27;;;3.93;;
6105;SDS011;3083;51.508;7.966;2022-07-29T07:23:00;11.07;;;4.13;;
6105;SDS011;3083;51.508;7.966;2022-07-29T07:25:27;9.50;;;3.97;;
6105;SDS011;3083;51.508;7.966;2022-07-29T07:27:54;7.00;;;3.80;;
6105;SDS011;3083;51.508;7.966;2022-07-29T07:30:21;7.50;;;3.37;;
6105;SDS011;3083;51.508;7.966;2022-07-29T07:32:48;12.63;;;3.60;;
6105;SDS011;3083;51.508;7.966;2022-07-29T07:35:15;8.47;;;4.47;;
6105;SDS011;3083;51.508;7.966;2022-07-29T07:37:42;6.97;;;3.70;;
6105;SDS011;3083;51.508;7.966;2022-07-29T07:40:11;7.20;;;3.70;;
6105;SDS011;3083;51.508;7.966;2022-07-29T07:42:39;8.17;;;4.13;;
6105;SDS011;3083;51.508;7.966;2022-07-29T07:45:06;9.70;;;4.60;;
6105;SDS011;3083;51.508;7.966;2022-07-29T07:47:35;6.57;;;4.50;;
6105;SDS011;3083;51.508;7.966;2022-07-29T07:50:02;7.70;;;4.00;;
6105;SDS011;3083;51.508;7.966;2022-07-29T07:52:30;11.03;;;3.73;;
6105;SDS011;3083;51.508;7.966;2022-07-29T07:54:57;5.97;;;3.43;;
6105;SDS011;3083;51.508;7.966;2022-07-29T07:57:25;8.00;;;4.10;;
6105;SDS011;3083;51.508;7.966;2022-07-29T07:59:52;13.43;;;4.57;;
6105;SDS011;3083;51.508;7.966;2022-07-29T08:02:21;8.03;;;3.70;;
6105;SDS011;3083;51.508;7.966;2022-07-29T08:04:51;7.30;;;3.70;;
6105;SDS011;3083;51.508;7.966;2022-07-29T08:07:18;8.50;;;3.87;;
6105;SDS011;3083;51.508;7.966;2022-07-29T08:09:45;11.53;;;4.07;;
6105;SDS011;3083;51.508;7.966;2022-07-29T08:12:12;9.63;;;4.00;;
6105;SDS011;3083;51.508;7.966;2022-07-29T08:14:40;9.30;;;3.90;;
6105;SDS011;3083;51.508;7.966;2022-07-29T08:17:09;9.27;;;4.20;;
6105;SDS011;3083;51.508;7.966;2022-07-29T08:19:36;7.00;;;4.20;;
6105;SDS011;3083;51.508;7.966;2022-07-29T08:22:07;5.83;;;3.27;;
6105;SDS011;3083;51.508;7.966;2022-07-29T08:24:34;9.23;;;4.10;;
6105;SDS011;3083;51.508;7.966;2022-07-29T08:27:17;5.60;;;3.70;;
6105;SDS011;3083;51.508;7.966;2022-07-29T08:29:47;8.03;;;3.93;;
6105;SDS011;3083;51.508;7.966;2022-07-29T08:32:14;8.03;;;3.70;;
6105;SDS011;3083;51.508;7.966;2022-07-29T08:34:41;6.57;;;3.60;;
6105;SDS011;3083;51.508;7.966;2022-07-29T08:37:11;9.30;;;4.10;;
6105;SDS011;3083;51.508;7.966;2022-07-29T08:39:38;8.37;;;4.17;;
6105;SDS011;3083;51.508;7.966;2022-07-29T08:42:08;10.00;;;3.87;;
6105;SDS011;3083;51.508;7.966;2022-07-29T08:44:36;8.10;;;3.87;;
6105;SDS011;3083;51.508;7.966;2022-07-29T08:49:48;12.73;;;4.33;;
6105;SDS011;3083;51.508;7.966;2022-07-29T08:52:15;10.50;;;4.30;;
6105;SDS011;3083;51.508;7.966;2022-07-29T08:54:43;6.93;;;3.90;;
6105;SDS011;3083;51.508;7.966;2022-07-29T08:57:12;10.20;;;4.30;;
6105;SDS011;3083;51.508;7.966;2022-07-29T08:59:40;8.40;;;3.77;;
6105;SDS011;3083;51.508;7.966;2022-07-29T09:02:11;7.40;;;3.70;;
6105;SDS011;3083;51.508;7.966;2022-07-29T09:07:32;10.30;;;3.90;;
6105;SDS011;3083;51.508;7.966;2022-07-29T09:09:59;8.07;;;3.90;;
6105;SDS011;3083;51.508;7.966;2022-07-29T09:12:28;7.50;;;4.37;;
6105;SDS011;3083;51.508;7.966;2022-07-29T09:14:56;10.00;;;4.30;;
6105;SDS011;3083;51.508;7.966;2022-07-29T09:20:09;9.73;;;4.20;;
6105;SDS011;3083;51.508;7.966;2022-07-29T09:22:37;8.67;;;4.20;;
6105;SDS011;3083;51.508;7.966;2022-07-29T09:25:04;8.33;;;3.90;;
6105;SDS011;3083;51.508;7.966;2022-07-29T09:27:32;13.83;;;4.10;;
6105;SDS011;3083;51.508;7.966;2022-07-29T09:30:00;9.23;;;3.80;;
6105;SDS011;3083;51.508;7.966;2022-07-29T09:32:30;8.20;;;3.87;;
6105;SDS011;3083;51.508;7.966;2022-07-29T09:37:45;8.53;;;4.03;;
6105;SDS011;3083;51.508;7.966;2022-07-29T09:40:15;8.00;;;3.80;;
6105;SDS011;3083;51.508;7.966;2022-07-29T09:42:44;7.53;;;3.90;;
6105;SDS011;3083;51.508;7.966;2022-07-29T09:45:11;7.60;;;3.73;;
6105;SDS011;3083;51.508;7.966;2022-07-29T09:47:44;7.50;;;3.90;;
6105;SDS011;3083;51.508;7.966;2022-07-29T09:50:13;9.30;;;4.37;;
6105;SDS011;3083;51.508;7.966;2022-07-29T09:52:46;6.60;;;3.97;;
6105;SDS011;3083;51.508;7.966;2022-07-29T09:55:15;8.10;;;4.20;;
6105;SDS011;3083;51.508;7.966;2022-07-29T10:00:43;22.67;;;3.90;;
6105;SDS011;3083;51.508;7.966;2022-07-29T10:03:11;9.68;;;3.70;;
6105;SDS011;3083;51.508;7.966;2022-07-29T10:05:39;6.80;;;3.50;;
6105;SDS011;3083;51.508;7.966;2022-07-29T10:08:08;9.40;;;3.92;;
6105;SDS011;3083;51.508;7.966;2022-07-29T10:10:37;6.50;;;3.65;;
6105;SDS011;3083;51.508;7.966;2022-07-29T10:13:07;8.45;;;4.13;;
6105;SDS011;3083;51.508;7.966;2022-07-29T10:15:36;5.03;;;3.30;;
6105;SDS011;3083;51.508;7.966;2022-07-29T10:18:06;9.97;;;3.87;;
6105;SDS011;3083;51.508;7.966;2022-07-29T10:20:34;6.00;;;3.60;;
6105;SDS011;3083;51.508;7.966;2022-07-29T10:23:01;10.47;;;3.80;;
6105;SDS011;3083;51.508;7.966;2022-07-29T10:25:30;6.82;;;3.80;;
6105;SDS011;3083;51.508;7.966;2022-07-29T10:27:58;12.87;;;3.53;;
6105;SDS011;3083;51.508;7.966;2022-07-29T10:30:25;7.93;;;3.20;;
6105;SDS011;3083;51.508;7.966;2022-07-29T10:35:46;6.13;;;3.33;;
6105;SDS011;3083;51.508;7.966;2022-07-29T10:38:42;6.77;;;3.20;;
6105;SDS011;3083;51.508;7.966;2022-07-29T10:41:17;9.17;;;3.57;;
6105;SDS011;3083;51.508;7.966;2022-07-29T10:43:55;9.10;;;4.17;;
6105;SDS011;3083;51.508;7.966;2022-07-29T10:46:25;6.90;;;3.67;;
6105;SDS011;3083;51.508;7.966;2022-07-29T10:49:10;11.80;;;3.60;;
6105;SDS011;3083;51.508;7.966;2022-07-29T10:51:58;5.90;;;3.40;;
6105;SDS011;3083;51.508;7.966;2022-07-29T10:54:40;5.60;;;3.27;;
6105;SDS011;3083;51.508;7.966;2022-07-29T10:57:27;5.83;;;3.80;;
6105;SDS011;3083;51.508;7.966;2022-07-29T11:03:00;5.13;;;3.38;;
6105;SDS011;3083;51.508;7.966;2022-07-29T11:05:27;5.18;;;3.40;;
6105;SDS011;3083;51.508;7.966;2022-07-29T11:08:24;6.67;;;3.70;;
6105;SDS011;3083;51.508;7.966;2022-07-29T11:10:52;8.95;;;3.60;;
6105;SDS011;3083;51.508;7.966;2022-07-29T11:13:49;10.52;;;3.85;;
6105;SDS011;3083;51.508;7.966;2022-07-29T11:16:19;8.30;;;3.60;;
6105;SDS011;3083;51.508;7.966;2022-07-29T11:21:46;5.15;;;3.50;;
6105;SDS011;3083;51.508;7.966;2022-07-29T11:24:15;5.90;;;3.53;;
6105;SDS011;3083;51.508;7.966;2022-07-29T11:26:43;5.23;;;3.53;;
6105;SDS011;3083;51.508;7.966;2022-07-29T11:29:19;8.33;;;4.00;;
6105;SDS011;3083;51.508;7.966;2022-07-29T11:31:48;11.40;;;4.00;;
6105;SDS011;3083;51.508;7.966;2022-07-29T11:34:22;5.80;;;3.30;;
6105;SDS011;3083;51.508;7.966;2022-07-29T11:39:47;9.20;;;3.30;;
6105;SDS011;3083;51.508;7.966;2022-07-29T11:42:39;9.57;;;3.50;;
6105;SDS011;3083;51.508;7.966;2022-07-29T11:45:16;6.23;;;3.63;;
6105;SDS011;3083;51.508;7.966;2022-07-29T11:47:51;5.77;;;3.60;;
6105;SDS011;3083;51.508;7.966;2022-07-29T11:50:27;6.13;;;3.90;;
6105;SDS011;3083;51.508;7.966;2022-07-29T11:52:59;8.90;;;3.60;;
6105;SDS011;3083;51.508;7.966;2022-07-29T11:55:27;10.00;;;4.10;;
6105;SDS011;3083;51.508;7.966;2022-07-29T11:57:57;8.03;;;3.73;;
6105;SDS011;3083;51.508;7.966;2022-07-29T12:00:27;7.63;;;3.90;;
6105;SDS011;3083;51.508;7.966;2022-07-29T12:02:56;8.00;;;3.73;;
6105;SDS011;3083;51.508;7.966;2022-07-29T12:05:34;7.63;;;3.00;;
6105;SDS011;3083;51.508;7.966;2022-07-29T12:08:10;5.20;;;3.33;;
6105;SDS011;3083;51.508;7.966;2022-07-29T12:10:41;6.53;;;3.33;;
6105;SDS011;3083;51.508;7.966;2022-07-29T12:13:09;10.20;;;3.80;;
6105;SDS011;3083;51.508;7.966;2022-07-29T12:15:38;6.73;;;3.40;;
6105;SDS011;3083;51.508;7.966;2022-07-29T12:18:13;6.50;;;3.40;;
6105;SDS011;3083;51.508;7.966;2022-07-29T12:20:43;8.43;;;3.23;;
6105;SDS011;3083;51.508;7.966;2022-07-29T12:23:11;14.77;;;3.70;;
6105;SDS011;3083;51.508;7.966;2022-07-29T12:25:39;9.43;;;3.53;;
6105;SDS011;3083;51.508;7.966;2022-07-29T12:28:08;6.90;;;3.23;;
6105;SDS011;3083;51.508;7.966;2022-07-29T12:30:42;10.13;;;3.20;;
6105;SDS011;3083;51.508;7.966;2022-07-29T12:33:15;8.63;;;3.83;;
6105;SDS011;3083;51.508;7.966;2022-07-29T12:35:46;7.63;;;3.67;;
6105;SDS011;3083;51.508;7.966;2022-07-29T12:38:15;5.50;;;3.33;;
6105;SDS011;3083;51.508;7.966;2022-07-29T12:40:44;6.33;;;3.40;;
6105;SDS011;3083;51.508;7.966;2022-07-29T12:43:14;8.20;;;3.23;;
6105;SDS011;3083;51.508;7.966;2022-07-29T12:45:49;6.97;;;3.43;;
6105;SDS011;3083;51.508;7.966;2022-07-29T12:48:32;8.67;;;3.77;;
6105;SDS011;3083;51.508;7.966;2022-07-29T12:51:01;14.23;;;3.40;;
6105;SDS011;3083;51.508;7.966;2022-07-29T12:53:35;10.80;;;3.67;;
6105;SDS011;3083;51.508;7.966;2022-07-29T12:56:16;9.67;;;3.50;;
6105;SDS011;3083;51.508;7.966;2022-07-29T12:58:45;10.20;;;3.50;;
6105;SDS011;3083;51.508;7.966;2022-07-29T13:01:14;6.20;;;3.03;;
6105;SDS011;3083;51.508;7.966;2022-07-29T13:03:50;7.63;;;3.53;;
6105;SDS011;3083;51.508;7.966;2022-07-29T13:06:31;7.03;;;3.43;;
6105;SDS011;3083;51.508;7.966;2022-07-29T13:09:02;5.30;;;3.17;;
6105;SDS011;3083;51.508;7.966;2022-07-29T13:11:32;9.57;;;4.03;;
6105;SDS011;3083;51.508;7.966;2022-07-29T13:14:03;24.00;;;3.90;;
6105;SDS011;3083;51.508;7.966;2022-07-29T13:16:32;9.57;;;3.63;;
6105;SDS011;3083;51.508;7.966;2022-07-29T13:19:05;10.07;;;3.80;;
6105;SDS011;3083;51.508;7.966;2022-07-29T13:21:35;7.60;;;3.43;;
6105;SDS011;3083;51.508;7.966;2022-07-29T13:24:08;10.20;;;4.03;;
6105;SDS011;3083;51.508;7.966;2022-07-29T13:26:39;8.23;;;4.10;;
6105;SDS011;3083;51.508;7.966;2022-07-29T13:29:06;11.63;;;6.00;;
6105;SDS011;3083;51.508;7.966;2022-07-29T13:31:37;13.60;;;3.53;;
6105;SDS011;3083;51.508;7.966;2022-07-29T13:34:07;13.53;;;4.33;;
6105;SDS011;3083;51.508;7.966;2022-07-29T13:36:34;8.90;;;3.90;;
6105;SDS011;3083;51.508;7.966;2022-07-29T13:39:02;16.53;;;4.00;;
6105;SDS011;3083;51.508;7.966;2022-07-29T13:41:31;11.13;;;4.10;;
6105;SDS011;3083;51.508;7.966;2022-07-29T13:43:58;6.23;;;3.50;;
6105;SDS011;3083;51.508;7.966;2022-07-29T13:46:25;8.30;;;3.73;;
6105;SDS011;3083;51.508;7.966;2022-07-29T13:48:53;9.30;;;3.73;;
6105;SDS011;3083;51.508;7.966;2022-07-29T13:51:20;7.40;;;3.93;;
6105;SDS011;3083;51.508;7.966;2022-07-29T13:53:47;9.50;;;4.37;;
6105;SDS011;3083;51.508;7.966;2022-07-29T13:56:16;7.67;;;4.03;;
6105;SDS011;3083;51.508;7.966;2022-07-29T13:58:44;7.17;;;3.83;;
6105;SDS011;3083;51.508;7.966;2022-07-29T14:01:11;10.20;;;3.63;;
6105;SDS011;3083;51.508;7.966;2022-07-29T14:03:40;8.97;;;3.90;;
6105;SDS011;3083;51.508;7.966;2022-07-29T14:06:11;7.70;;;3.80;;
6105;SDS011;3083;51.508;7.966;2022-07-29T14:08:40;12.50;;;4.50;;
6105;SDS011;3083;51.508;7.966;2022-07-29T14:11:07;7.57;;;3.50;;
6105;SDS011;3083;51.508;7.966;2022-07-29T14:13:34;9.90;;;4.13;;
6105;SDS011;3083;51.508;7.966;2022-07-29T14:16:03;7.20;;;3.33;;
6105;SDS011;3083;51.508;7.966;2022-07-29T14:18:32;8.70;;;3.97;;
6105;SDS011;3083;51.508;7.966;2022-07-29T14:20:59;10.47;;;3.60;;
6105;SDS011;3083;51.508;7.966;2022-07-29T14:23:27;6.13;;;3.60;;
6105;SDS011;3083;51.508;7.966;2022-07-29T14:25:56;8.70;;;3.57;;
6105;SDS011;3083;51.508;7.966;2022-07-29T14:28:23;9.33;;;3.77;;
6105;SDS011;3083;51.508;7.966;2022-07-29T14:30:50;9.93;;;3.63;;
6105;SDS011;3083;51.508;7.966;2022-07-29T14:33:20;6.80;;;3.67;;
6105;SDS011;3083;51.508;7.966;2022-07-29T14:35:47;9.63;;;3.70;;
6105;SDS011;3083;51.508;7.966;2022-07-29T14:38:15;7.43;;;3.87;;
6105;SDS011;3083;51.508;7.966;2022-07-29T14:40:43;11.20;;;3.97;;
6105;SDS011;3083;51.508;7.966;2022-07-29T14:43:11;7.00;;;3.93;;
6105;SDS011;3083;51.508;7.966;2022-07-29T14:45:38;11.60;;;3.73;;
6105;SDS011;3083;51.508;7.966;2022-07-29T14:48:05;9.50;;;3.87;;
6105;SDS011;3083;51.508;7.966;2022-07-29T14:50:35;12.50;;;4.30;;
6105;SDS011;3083;51.508;7.966;2022-07-29T14:53:04;7.50;;;4.07;;
6105;SDS011;3083;51.508;7.966;2022-07-29T14:55:39;17.80;;;4.20;;
6105;SDS011;3083;51.508;7.966;2022-07-29T14:58:10;14.73;;;4.43;;
6105;SDS011;3083;51.508;7.966;2022-07-29T15:00:38;13.00;;;4.20;;
6105;SDS011;3083;51.508;7.966;2022-07-29T15:03:05;12.30;;;4.27;;
6105;SDS011;3083;51.508;7.966;2022-07-29T15:05:35;14.03;;;4.30;;
6105;SDS011;3083;51.508;7.966;2022-07-29T15:08:04;9.77;;;4.27;;
6105;SDS011;3083;51.508;7.966;2022-07-29T15:10:33;10.10;;;4.30;;
6105;SDS011;3083;51.508;7.966;2022-07-29T15:13:02;10.17;;;4.60;;
6105;SDS011;3083;51.508;7.966;2022-07-29T15:15:30;11.90;;;3.80;;
6105;SDS011;3083;51.508;7.966;2022-07-29T15:17:57;11.00;;;4.63;;
6105;SDS011;3083;51.508;7.966;2022-07-29T15:20:24;6.60;;;4.30;;
6105;SDS011;3083;51.508;7.966;2022-07-29T15:22:52;11.87;;;4.97;;
6105;SDS011;3083;51.508;7.966;2022-07-29T15:25:20;11.20;;;4.27;;
6105;SDS011;3083;51.508;7.966;2022-07-29T15:27:48;6.87;;;3.93;;
6105;SDS011;3083;51.508;7.966;2022-07-29T15:30:16;15.30;;;4.53;;
6105;SDS011;3083;51.508;7.966;2022-07-29T15:32:45;6.63;;;4.37;;
6105;SDS011;3083;51.508;7.966;2022-07-29T15:35:12;13.37;;;5.40;;
6105;SDS011;3083;51.508;7.966;2022-07-29T15:37:40;13.00;;;5.00;;
6105;SDS011;3083;51.508;7.966;2022-07-29T15:40:10;11.50;;;5.07;;
6105;SDS011;3083;51.508;7.966;2022-07-29T15:42:43;9.80;;;4.60;;
6105;SDS011;3083;51.508;7.966;2022-07-29T15:45:13;9.30;;;5.50;;
6105;SDS011;3083;51.508;7.966;2022-07-29T15:47:40;9.70;;;4.90;;
6105;SDS011;3083;51.508;7.966;2022-07-29T15:50:10;9.67;;;5.43;;
6105;SDS011;3083;51.508;7.966;2022-07-29T15:52:40;7.50;;;4.60;;
6105;SDS011;3083;51.508;7.966;2022-07-29T15:55:07;9.50;;;5.63;;
6105;SDS011;3083;51.508;7.966;2022-07-29T15:57:34;8.50;;;4.93;;